createdAt,value
2023-01-13T00:08:31.800Z,22.275
2023-01-13T00:23:33.662Z,21.632
2023-01-13T00:38:35.508Z,20.863
2023-01-13T00:53:37.415Z,21.653
2023-01-13T01:08:39.295Z,21.774
2023-01-13T01:23:41.167Z,22.29
2023-01-13T01:38:43.112Z,22.161
2023-01-13T01:53:44.948Z,21.739
2023-01-13T02:08:46.819Z,22.468
2023-01-13T02:23:48.778Z,22.712
2023-01-13T02:38:50.626Z,22.656
2023-01-13T02:53:52.438Z,23.938
2023-01-13T03:08:54.301Z,23.927
2023-01-13T03:23:56.176Z,23.979
2023-01-13T03:38:58.048Z,24.069
2023-01-13T03:53:59.929Z,24.315
2023-01-13T04:09:01.797Z,23.89
2023-01-13T04:24:03.662Z,24.021
2023-01-13T04:39:05.500Z,23.462
2023-01-13T04:54:07.366Z,24.906
2023-01-13T05:09:09.267Z,25.305
2023-01-13T05:24:11.155Z,24.14
2023-01-13T05:39:13.008Z,24.176
2023-01-13T05:54:14.842Z,23.667
2023-01-13T06:09:16.686Z,23.525
2023-01-13T06:24:18.610Z,23.928
2023-01-13T06:39:20.474Z,23.645
2023-01-13T06:54:22.327Z,22.945
2023-01-13T07:09:24.156Z,23.383
2023-01-13T07:24:26.098Z,23.816
2023-01-13T07:39:27.946Z,23.546
2023-01-13T07:54:40.125Z,23.174
2023-01-13T08:09:43.016Z,23.372
2023-01-13T08:24:45.080Z,23.406
2023-01-13T08:39:46.955Z,22.327
2023-01-13T08:54:48.834Z,24.333
2023-01-13T09:09:50.805Z,24.106
2023-01-13T09:24:52.644Z,23.242
2023-01-13T09:39:54.494Z,22.843
2023-01-13T09:54:56.376Z,23.324
2023-01-13T10:09:58.230Z,22.963
2023-01-13T10:25:00.295Z,23.302
2023-01-13T10:40:02.222Z,22.691
2023-01-13T10:55:04.107Z,22.327
2023-01-13T11:10:05.994Z,22.971
2023-01-13T11:25:07.861Z,21.24
2023-01-13T11:40:09.702Z,21.893
2023-01-13T11:55:12.551Z,23.414
2023-01-13T12:10:14.444Z,23.455
2023-01-13T12:25:16.399Z,22.831
2023-01-13T12:40:18.231Z,23.086
2023-01-13T12:55:20.152Z,24.412
2023-01-13T13:10:22.051Z,22.845
2023-01-13T13:25:23.982Z,23.439
2023-01-13T13:40:25.871Z,23.949
2023-01-13T13:55:27.991Z,23.804
2023-01-13T14:10:30.073Z,23.823
2023-01-13T14:25:32.234Z,24.146
2023-01-13T14:40:34.245Z,24.666
2023-01-13T14:55:36.175Z,24.293
2023-01-13T15:10:38.074Z,24.72
2023-01-13T15:25:39.981Z,25.594
2023-01-13T15:40:41.929Z,24.271
2023-01-13T15:55:43.864Z,24.411
2023-01-13T16:10:45.758Z,25.183
2023-01-13T16:25:47.864Z,24.678
2023-01-13T16:40:49.797Z,24.504
2023-01-13T16:55:51.747Z,24.871
2023-01-13T17:10:53.667Z,25.874
2023-01-13T17:25:55.680Z,24.317
2023-01-13T17:40:57.556Z,24.864
2023-01-13T17:55:59.420Z,25.181
2023-01-13T18:11:01.292Z,24.644
2023-01-13T18:26:03.154Z,26.531
2023-01-13T18:41:05.039Z,25.596
2023-01-13T18:56:06.942Z,25.541
2023-01-13T19:11:08.863Z,23.492
2023-01-13T19:26:10.809Z,23.403
2023-01-13T19:41:12.928Z,22.986
2023-01-13T19:56:14.862Z,24.627
2023-01-13T20:11:16.812Z,24.814
2023-01-13T20:26:18.714Z,26.259
2023-01-13T20:41:20.585Z,27.013
2023-01-13T20:56:22.481Z,28.24
2023-01-13T21:11:24.398Z,28.329
2023-01-13T21:26:26.192Z,27.45
2023-01-13T21:41:27.992Z,27.084
2023-01-13T21:56:30.082Z,25.052
2023-01-13T22:11:32.015Z,27.149
2023-01-13T22:26:34.076Z,26.055
2023-01-13T22:41:36.017Z,26.501
2023-01-13T22:56:38.159Z,26.145
2023-01-13T23:11:40.218Z,26.124
2023-01-13T23:26:42.342Z,25.819
2023-01-13T23:41:44.303Z,25.876
2023-01-13T23:56:46.282Z,25.747
